Whistler, Alabama
Current Conditions -  °F | °C
As of 6:08 AM on Sunday 23 Nov 2014 (Local Time) from KMOB Reporting Station
Light Rain Light Rain  
Wind Chill: 67°   Ceiling: 400
Heat Index: 67°   Visibility: 3mi
Dew Point: 67°   Wind: 12mph
Humidity: 100%   Direction: 130°SE
Pressure: 29.77"   Gusts: NA
Location:  30.7534°N, 88.1122°W
Report Text: KMOB 231208Z 13010KT 3SM -RA BR OVC004 19/19 A2977 RMK AO2 P0001 T01940194
Loading
Personal Weather Stations






























Interactive Weather Map New forecast layout! Learn more

10-Day Weather Forecast

Advertisements
Track Severe Weather on mobile